Hlavní strana
METAR-TAF:

METAR-TAF

Letiště :

Dar es Salaam, Tanzanie

zeměpisná šířka: 06-52S, zeměpisná délka: 039-12E, výška: 55 m

Aktuální stav počasí

Zpráva byla vytvořena před 1 hodinou a 12 minutami, v 03:00 UTC
Bezvětří
Teplota 25°C
Vlhkost vzduchu 94%
Tlak 1011 hPa
Viditelnost 10 km a více
Skoro jasno ve výšce 1100 ft
Oblačno až skoro zataženo ve výšce 7000 ft

METAR: HTDA 210300Z 00000KT 9999 FEW011 BKN070 25/24 Q1011 NOSIG

Čas: 07:12 (04:12 UTC)

Předpověď počasí

Zpráva byla vytvořena před 5 hodinami a 12 minutami, v 23:00 UTC
Předpověď platná od 21 v 00 UTC do 22 v 06 UTC
Severní vítr 5 kt
Viditelnost 10 km a více
Oblačno až skoro zataženo ve výšce 1200 ft
Změna
od 21 v 09 UTC do 21 v 12 UTC
Severoseverovýchodní vítr 15 kt

TAF: HTDA 202300Z 2100/2206 36005KT 9999 BKN012 BECMG 2109/2112 02015KT

Stav a předpovědi počasí z více než 4 000 letišť (zprávy METAR a TAF).

Červené a žluté tečky na mapě představují dostupné meteorologické stanice.

Když kurzor umístíte na tečku, zobrazí se název stanice.

Pak kliknutím zobrazíte stav a předpověď počasí.

Chcete-li změnit mapu, kliknutím na zelené tlačítko se znaménkem +mapu přiblížíte, kliknutím na zelené tlačítko se znaménkem – mapu oddálíte a kliknutím na zelené šipky přejdete na sousední mapy.


METAR-TAF: